createdAt,value
2019-04-11T00:01:12.495Z,69.75
2019-04-11T00:07:16.955Z,80.67
2019-04-11T00:13:24.347Z,72.17
2019-04-11T00:19:23.426Z,68.50
2019-04-11T00:25:28.097Z,74.62
2019-04-11T00:31:32.701Z,67.35
2019-04-11T00:37:35.453Z,62.30
2019-04-11T00:43:41.952Z,56.28
2019-04-11T00:49:43.010Z,60.65
2019-04-11T00:55:46.009Z,58.60
2019-04-11T01:01:51.483Z,47.33
2019-04-11T01:07:55.430Z,41.25
2019-04-11T01:13:59.408Z,36.23
2019-04-11T01:20:02.931Z,34.10
2019-04-11T01:26:08.641Z,37.83
2019-04-11T01:32:13.840Z,36.88
2019-04-11T01:38:16.823Z,36.40
2019-04-11T01:44:20.550Z,35.33
2019-04-11T01:50:25.330Z,35.55
2019-04-11T01:56:29.396Z,33.30
2019-04-11T02:02:47.905Z,33.70
2019-04-11T02:08:59.820Z,35.68
2019-04-11T02:15:04.488Z,32.80
2019-04-11T02:21:06.808Z,29.42
2019-04-11T02:27:14.779Z,31.30
2019-04-11T02:33:18.583Z,30.92
2019-04-11T02:39:22.886Z,29.50
2019-04-11T02:45:39.792Z,28.27
2019-04-11T02:51:31.160Z,25.52
2019-04-11T02:57:36.295Z,25.90
2019-04-11T03:03:42.191Z,25.35
2019-04-11T03:09:48.584Z,26.73
2019-04-11T03:16:07.260Z,24.80
2019-04-11T03:21:57.347Z,24.37
2019-04-11T03:28:09.592Z,25.95
2019-04-11T03:35:02.841Z,26.40
2019-04-11T03:40:36.780Z,23.62
2019-04-11T03:46:43.424Z,24.75
2019-04-11T03:52:30.571Z,25.70
2019-04-11T03:58:39.758Z,24.75
2019-04-11T04:04:46.190Z,24.43
2019-04-11T04:11:08.650Z,26.85
2019-04-11T04:17:30.815Z,25.90
2019-04-11T04:23:37.718Z,25.40
2019-04-11T04:29:41.414Z,25.62
2019-04-11T04:35:44.772Z,26.87
2019-04-11T04:41:58.802Z,26.40
2019-04-11T04:47:58.974Z,27.80
2019-04-11T04:53:58.439Z,25.55
2019-04-11T05:00:03.310Z,24.63
2019-04-11T05:06:10.106Z,25.40
2019-04-11T05:12:13.888Z,24.77
2019-04-11T05:18:20.721Z,24.65
2019-04-11T05:24:23.324Z,23.40
2019-04-11T05:30:27.134Z,26.42
2019-04-11T05:36:32.338Z,26.30
2019-04-11T05:42:35.442Z,25.95
2019-04-11T05:48:41.018Z,24.45
2019-04-11T05:54:49.733Z,27.07
2019-04-11T06:01:01.329Z,26.05
2019-04-11T06:07:11.398Z,27.27
2019-04-11T06:13:24.559Z,25.72
2019-04-11T06:19:33.477Z,24.55
2019-04-11T06:25:41.508Z,26.12
2019-04-11T06:31:59.258Z,25.75
2019-04-11T06:38:20.945Z,25.60
2019-04-11T06:44:28.242Z,26.30
2019-04-11T06:50:35.772Z,26.02
2019-04-11T06:56:41.213Z,25.15
2019-04-11T07:02:46.546Z,27.32
2019-04-11T07:09:10.319Z,24.27
2019-04-11T07:15:20.924Z,25.45
2019-04-11T07:21:25.394Z,27.15
2019-04-11T07:27:29.816Z,25.02
2019-04-11T07:33:54.005Z,27.27
2019-04-11T07:40:15.291Z,27.20
2019-04-11T07:46:22.763Z,28.07
2019-04-11T07:52:30.198Z,23.80
2019-04-11T07:58:33.798Z,26.82
2019-04-11T08:04:38.676Z,28.25
2019-04-11T08:10:51.048Z,24.27
2019-04-11T08:17:11.460Z,22.80
2019-04-11T08:23:16.294Z,22.37
2019-04-11T08:29:20.218Z,23.27
2019-04-11T08:35:36.607Z,21.73
2019-04-11T08:41:41.967Z,22.37
2019-04-11T08:47:49.272Z,25.43
2019-04-11T08:54:09.144Z,23.12
2019-04-11T09:00:31.301Z,24.30
2019-04-11T09:06:34.724Z,25.43
2019-04-11T09:12:41.200Z,22.52
2019-04-11T09:18:44.177Z,23.47
2019-04-11T09:25:05.401Z,25.25
2019-04-11T09:31:27.602Z,22.15
2019-04-11T09:37:30.593Z,24.55
2019-04-11T09:43:35.651Z,23.83
2019-04-11T09:49:39.999Z,22.82
2019-04-11T09:55:44.253Z,23.25
2019-04-11T10:01:56.145Z,22.20
2019-04-11T10:08:09.062Z,23.27
2019-04-11T10:14:15.608Z,22.02
2019-04-11T10:20:20.317Z,23.50
2019-04-11T10:26:25.762Z,24.72
2019-04-11T10:32:32.978Z,23.02
2019-04-11T10:38:37.035Z,23.32
2019-04-11T10:44:42.329Z,24.85
2019-04-11T10:50:47.091Z,25.02
2019-04-11T10:57:09.024Z,21.00
2019-04-11T11:03:20.326Z,22.25
2019-04-11T11:09:39.975Z,24.00
2019-04-11T11:15:44.359Z,25.40
2019-04-11T11:21:49.520Z,23.52
2019-04-11T11:27:52.374Z,23.83
2019-04-11T11:33:56.614Z,25.82
2019-04-11T11:40:07.727Z,24.18
2019-04-11T11:46:29.710Z,23.47
2019-04-11T11:52:49.589Z,25.08
2019-04-11T11:58:58.015Z,22.73
2019-04-11T12:05:02.589Z,24.50
2019-04-11T12:11:08.128Z,25.25
2019-04-11T12:17:29.326Z,24.47
2019-04-11T12:23:58.087Z,22.62
2019-04-11T12:30:13.423Z,25.12
2019-04-11T12:36:18.979Z,23.65
2019-04-11T12:42:25.976Z,23.98
2019-04-11T12:48:34.923Z,24.55
2019-04-11T12:54:43.658Z,24.47
2019-04-11T13:00:54.094Z,23.47
2019-04-11T13:07:15.415Z,21.60
2019-04-11T13:13:36.645Z,22.37
2019-04-11T13:20:04.694Z,23.57
2019-04-11T13:26:07.089Z,22.27
2019-04-11T13:32:28.189Z,23.55
2019-04-11T13:38:35.110Z,23.22
2019-04-11T13:44:38.845Z,23.98
2019-04-11T13:50:41.096Z,22.80
2019-04-11T13:57:01.964Z,24.50
2019-04-11T14:03:16.376Z,23.62
2019-04-11T14:09:30.444Z,23.00
2019-04-11T14:15:30.591Z,23.57
2019-04-11T14:21:33.023Z,21.30
2019-04-11T14:27:35.495Z,23.52
2019-04-11T14:33:42.594Z,23.57
2019-04-11T14:39:47.153Z,22.50
2019-04-11T14:45:53.936Z,22.70
2019-04-11T14:52:07.227Z,27.10
2019-04-11T14:58:27.902Z,23.38
2019-04-11T15:04:50.440Z,24.47
2019-04-11T15:11:04.524Z,21.33
2019-04-11T15:17:08.923Z,23.73
2019-04-11T15:23:13.354Z,21.37
2019-04-11T15:29:19.324Z,22.10
2019-04-11T15:35:22.036Z,21.65
2019-04-11T15:41:26.079Z,22.15
2019-04-11T15:47:29.960Z,23.47
2019-04-11T15:53:46.692Z,22.10
2019-04-11T15:59:57.314Z,21.07
2019-04-11T16:06:04.252Z,21.35
2019-04-11T16:12:08.885Z,21.82
2019-04-11T16:18:22.349Z,21.60
2019-04-11T16:24:27.634Z,20.62
2019-04-11T16:30:39.549Z,21.35
2019-04-11T16:36:46.744Z,18.67
2019-04-11T16:42:53.608Z,19.17
2019-04-11T16:48:55.902Z,19.07
2019-04-11T16:54:59.295Z,18.15
2019-04-11T17:01:06.570Z,19.77
2019-04-11T17:07:11.087Z,18.57
2019-04-11T17:13:13.761Z,16.42
2019-04-11T17:19:16.447Z,16.70
2019-04-11T17:25:19.822Z,18.92
2019-04-11T17:31:25.691Z,18.35
2019-04-11T17:37:27.149Z,19.65
2019-04-11T17:43:29.489Z,19.55
2019-04-11T17:49:31.822Z,19.25
2019-04-11T17:55:34.596Z,18.75
2019-04-11T18:01:38.010Z,19.45
2019-04-11T18:07:42.346Z,19.10
2019-04-11T18:13:44.803Z,20.12
2019-04-11T18:19:47.879Z,19.50
2019-04-11T18:25:53.883Z,19.60
2019-04-11T18:31:56.329Z,22.87
2019-04-11T18:38:06.945Z,19.37
2019-04-11T18:44:09.842Z,21.75
2019-04-11T18:50:15.363Z,19.42
2019-04-11T18:56:18.276Z,21.95
2019-04-11T19:02:21.997Z,20.97
2019-04-11T19:08:34.205Z,22.45
2019-04-11T19:14:37.173Z,26.35
2019-04-11T19:20:40.338Z,24.67
2019-04-11T19:26:46.033Z,24.72
2019-04-11T19:32:47.712Z,19.70
2019-04-11T19:38:53.521Z,17.20
2019-04-11T19:44:56.199Z,18.52
2019-04-11T19:50:59.538Z,18.40
2019-04-11T19:57:07.477Z,17.32
2019-04-11T20:03:12.960Z,17.62
2019-04-11T20:09:16.552Z,18.17
2019-04-11T20:15:19.731Z,45.98
2019-04-11T20:21:22.307Z,18.65
2019-04-11T20:27:29.470Z,18.05
2019-04-11T20:33:34.702Z,16.20
2019-04-11T20:39:37.144Z,16.87
2019-04-11T20:45:43.411Z,15.85
2019-04-11T20:51:47.677Z,16.05
2019-04-11T20:57:51.338Z,16.85
2019-04-11T21:03:55.140Z,15.98
2019-04-11T21:09:57.908Z,15.83
2019-04-11T21:16:00.322Z,16.80
2019-04-11T21:22:04.284Z,15.78
2019-04-11T21:28:07.262Z,15.30
2019-04-11T21:34:09.814Z,15.80
2019-04-11T21:40:12.423Z,16.37
2019-04-11T21:46:14.742Z,15.50
2019-04-11T21:52:17.031Z,16.20
2019-04-11T21:58:20.354Z,15.90
2019-04-11T22:04:27.117Z,16.77
2019-04-11T22:10:29.079Z,16.30
2019-04-11T22:16:33.081Z,16.37
2019-04-11T22:22:35.299Z,14.50
2019-04-11T22:28:37.603Z,15.93
2019-04-11T22:34:44.925Z,16.32
2019-04-11T22:40:47.286Z,16.12
2019-04-11T22:46:49.867Z,16.97
2019-04-11T22:52:52.238Z,15.80
2019-04-11T22:58:54.572Z,15.90
2019-04-11T23:04:57.490Z,16.23
2019-04-11T23:10:59.682Z,17.32
2019-04-11T23:17:02.302Z,16.97
2019-04-11T23:23:04.568Z,15.90
2019-04-11T23:29:06.962Z,14.68
2019-04-11T23:35:09.341Z,14.50
2019-04-11T23:41:11.581Z,14.90
2019-04-11T23:47:14.427Z,13.78
2019-04-11T23:53:16.676Z,14.20
2019-04-11T23:59:18.914Z,14.05
